Mula, Spain
Current Conditions -  °F | °C
As of 6:00 PM on Thursday 18 Dec 2014 (Local Time) from LELC Reporting Station
Clear Clear  
Wind Chill: 14°   Ceiling: Unl
Heat Index: 14°   Visibility: 6mi
Dew Point: 10°   Wind: 0mph
Humidity: 77%   Direction: NA
Pressure: 30.3"   Gusts: NA
Location:  38.04°N, 1.49°W
Report Text: LELC 181700Z 00000KT CAVOK 14/10 Q1026 NOSIG
Loading
Personal Weather Stations






























Interactive Weather Map New forecast layout! Learn more

10-Day Weather Forecast

Advertisements
Track Severe Weather on mobile